sensor_id;sensor_type;location;lat;lon;timestamp;temperature;humidity
2935;DHT22;2462;51.456;7.248;2022-08-19T00:01:33;21.40;99.90
2935;DHT22;2462;51.456;7.248;2022-08-19T00:04:04;21.40;99.90
2935;DHT22;2462;51.456;7.248;2022-08-19T00:06:31;21.30;99.90
2935;DHT22;2462;51.456;7.248;2022-08-19T00:08:57;21.40;99.90
2935;DHT22;2462;51.456;7.248;2022-08-19T00:11:23;21.30;99.90
2935;DHT22;2462;51.456;7.248;2022-08-19T00:13:49;21.30;99.90
2935;DHT22;2462;51.456;7.248;2022-08-19T00:16:16;21.30;99.90
2935;DHT22;2462;51.456;7.248;2022-08-19T00:18:43;21.30;99.90
2935;DHT22;2462;51.456;7.248;2022-08-19T00:21:09;21.30;99.90
2935;DHT22;2462;51.456;7.248;2022-08-19T00:23:35;21.20;99.90
2935;DHT22;2462;51.456;7.248;2022-08-19T00:26:05;21.20;99.90
2935;DHT22;2462;51.456;7.248;2022-08-19T00:28:31;21.20;99.90
2935;DHT22;2462;51.456;7.248;2022-08-19T00:30:58;21.10;99.90
2935;DHT22;2462;51.456;7.248;2022-08-19T00:33:24;21.20;99.90
2935;DHT22;2462;51.456;7.248;2022-08-19T00:35:49;21.10;99.90
2935;DHT22;2462;51.456;7.248;2022-08-19T00:38:15;21.10;99.90
2935;DHT22;2462;51.456;7.248;2022-08-19T00:40:43;21.10;99.90
2935;DHT22;2462;51.456;7.248;2022-08-19T00:43:13;21.10;99.90
2935;DHT22;2462;51.456;7.248;2022-08-19T00:45:43;21.00;99.90
2935;DHT22;2462;51.456;7.248;2022-08-19T00:48:10;21.10;99.90
2935;DHT22;2462;51.456;7.248;2022-08-19T00:50:36;21.10;99.90
2935;DHT22;2462;51.456;7.248;2022-08-19T00:53:07;21.00;99.90
2935;DHT22;2462;51.456;7.248;2022-08-19T00:55:45;21.00;99.90
2935;DHT22;2462;51.456;7.248;2022-08-19T00:58:14;21.00;99.90
2935;DHT22;2462;51.456;7.248;2022-08-19T01:00:40;20.90;99.90
2935;DHT22;2462;51.456;7.248;2022-08-19T01:03:09;20.90;99.90
2935;DHT22;2462;51.456;7.248;2022-08-19T01:05:35;20.90;99.90
2935;DHT22;2462;51.456;7.248;2022-08-19T01:08:04;20.90;99.90
2935;DHT22;2462;51.456;7.248;2022-08-19T01:10:33;20.90;99.90
2935;DHT22;2462;51.456;7.248;2022-08-19T01:13:01;20.80;99.90
2935;DHT22;2462;51.456;7.248;2022-08-19T01:15:31;20.80;99.90
2935;DHT22;2462;51.456;7.248;2022-08-19T01:18:00;20.80;99.90
2935;DHT22;2462;51.456;7.248;2022-08-19T01:20:26;20.80;99.90
2935;DHT22;2462;51.456;7.248;2022-08-19T01:22:56;20.80;99.90
2935;DHT22;2462;51.456;7.248;2022-08-19T01:25:35;20.80;99.90
2935;DHT22;2462;51.456;7.248;2022-08-19T01:28:01;20.70;99.90
2935;DHT22;2462;51.456;7.248;2022-08-19T01:30:33;20.70;99.90
2935;DHT22;2462;51.456;7.248;2022-08-19T01:33:00;20.70;99.90
2935;DHT22;2462;51.456;7.248;2022-08-19T01:35:28;20.70;99.90
2935;DHT22;2462;51.456;7.248;2022-08-19T01:37:57;20.70;99.90
2935;DHT22;2462;51.456;7.248;2022-08-19T01:40:27;20.70;99.90
2935;DHT22;2462;51.456;7.248;2022-08-19T01:42:54;20.60;99.90
2935;DHT22;2462;51.456;7.248;2022-08-19T01:45:22;20.60;99.90
2935;DHT22;2462;51.456;7.248;2022-08-19T01:47:49;20.60;99.90
2935;DHT22;2462;51.456;7.248;2022-08-19T01:50:15;20.60;99.90
2935;DHT22;2462;51.456;7.248;2022-08-19T01:52:42;20.60;99.90
2935;DHT22;2462;51.456;7.248;2022-08-19T01:55:13;20.60;99.90
2935;DHT22;2462;51.456;7.248;2022-08-19T01:57:42;20.60;99.90
2935;DHT22;2462;51.456;7.248;2022-08-19T02:00:12;20.50;99.90
2935;DHT22;2462;51.456;7.248;2022-08-19T02:02:41;20.50;99.90
2935;DHT22;2462;51.456;7.248;2022-08-19T02:05:07;20.40;99.90
2935;DHT22;2462;51.456;7.248;2022-08-19T02:07:34;20.40;99.90
2935;DHT22;2462;51.456;7.248;2022-08-19T02:10:04;20.40;99.90
2935;DHT22;2462;51.456;7.248;2022-08-19T02:12:30;20.40;99.90
2935;DHT22;2462;51.456;7.248;2022-08-19T02:14:55;20.40;99.90
2935;DHT22;2462;51.456;7.248;2022-08-19T02:17:21;20.40;99.90
2935;DHT22;2462;51.456;7.248;2022-08-19T02:19:46;20.40;99.90
2935;DHT22;2462;51.456;7.248;2022-08-19T02:22:14;20.30;99.90
2935;DHT22;2462;51.456;7.248;2022-08-19T02:24:39;20.30;99.90
2935;DHT22;2462;51.456;7.248;2022-08-19T02:27:05;20.30;99.90
2935;DHT22;2462;51.456;7.248;2022-08-19T02:29:31;20.30;99.90
2935;DHT22;2462;51.456;7.248;2022-08-19T02:31:57;20.30;99.90
2935;DHT22;2462;51.456;7.248;2022-08-19T02:34:23;20.30;99.90
2935;DHT22;2462;51.456;7.248;2022-08-19T02:36:50;20.20;99.90
2935;DHT22;2462;51.456;7.248;2022-08-19T02:39:16;20.20;99.90
2935;DHT22;2462;51.456;7.248;2022-08-19T02:41:41;20.20;99.90
2935;DHT22;2462;51.456;7.248;2022-08-19T02:44:07;20.20;99.90
2935;DHT22;2462;51.456;7.248;2022-08-19T02:46:33;20.20;99.90
2935;DHT22;2462;51.456;7.248;2022-08-19T02:49:04;20.20;99.90
2935;DHT22;2462;51.456;7.248;2022-08-19T02:51:36;20.20;99.90
2935;DHT22;2462;51.456;7.248;2022-08-19T02:54:03;20.10;99.90
2935;DHT22;2462;51.456;7.248;2022-08-19T02:56:29;20.10;99.90
2935;DHT22;2462;51.456;7.248;2022-08-19T02:58:56;20.10;99.90
2935;DHT22;2462;51.456;7.248;2022-08-19T03:01:25;20.10;99.90
2935;DHT22;2462;51.456;7.248;2022-08-19T03:03:52;20.10;99.90
2935;DHT22;2462;51.456;7.248;2022-08-19T03:06:18;20.10;99.90
2935;DHT22;2462;51.456;7.248;2022-08-19T03:08:45;20.10;99.90
2935;DHT22;2462;51.456;7.248;2022-08-19T03:11:26;20.00;99.90
2935;DHT22;2462;51.456;7.248;2022-08-19T03:13:52;20.00;99.90
2935;DHT22;2462;51.456;7.248;2022-08-19T03:16:21;20.00;99.90
2935;DHT22;2462;51.456;7.248;2022-08-19T03:18:47;20.00;99.90
2935;DHT22;2462;51.456;7.248;2022-08-19T03:21:21;20.00;99.90
2935;DHT22;2462;51.456;7.248;2022-08-19T03:23:48;20.00;99.90
2935;DHT22;2462;51.456;7.248;2022-08-19T03:26:13;20.00;99.90
2935;DHT22;2462;51.456;7.248;2022-08-19T03:28:43;20.00;99.90
2935;DHT22;2462;51.456;7.248;2022-08-19T03:31:13;20.00;99.90
2935;DHT22;2462;51.456;7.248;2022-08-19T03:33:39;20.00;99.90
2935;DHT22;2462;51.456;7.248;2022-08-19T03:36:13;20.00;99.90
2935;DHT22;2462;51.456;7.248;2022-08-19T03:38:47;20.00;99.90
2935;DHT22;2462;51.456;7.248;2022-08-19T03:41:17;20.00;99.90
2935;DHT22;2462;51.456;7.248;2022-08-19T03:43:44;20.00;99.90
2935;DHT22;2462;51.456;7.248;2022-08-19T03:46:17;20.00;99.90
2935;DHT22;2462;51.456;7.248;2022-08-19T03:48:46;20.00;99.90
2935;DHT22;2462;51.456;7.248;2022-08-19T03:51:18;20.00;99.90
2935;DHT22;2462;51.456;7.248;2022-08-19T03:53:45;19.90;99.90
2935;DHT22;2462;51.456;7.248;2022-08-19T03:56:11;19.90;99.90
2935;DHT22;2462;51.456;7.248;2022-08-19T03:58:38;19.90;99.90
2935;DHT22;2462;51.456;7.248;2022-08-19T04:01:12;19.90;99.90
2935;DHT22;2462;51.456;7.248;2022-08-19T04:03:38;19.90;99.90
2935;DHT22;2462;51.456;7.248;2022-08-19T04:06:19;19.90;99.90
2935;DHT22;2462;51.456;7.248;2022-08-19T04:08:47;19.90;99.90
2935;DHT22;2462;51.456;7.248;2022-08-19T04:11:15;19.90;99.90
2935;DHT22;2462;51.456;7.248;2022-08-19T04:13:42;19.80;99.90
2935;DHT22;2462;51.456;7.248;2022-08-19T04:16:09;19.90;99.90
2935;DHT22;2462;51.456;7.248;2022-08-19T04:18:35;19.90;99.90
2935;DHT22;2462;51.456;7.248;2022-08-19T04:21:02;19.80;99.90
2935;DHT22;2462;51.456;7.248;2022-08-19T04:23:27;19.80;99.90
2935;DHT22;2462;51.456;7.248;2022-08-19T04:25:56;19.80;99.90
2935;DHT22;2462;51.456;7.248;2022-08-19T04:28:22;19.80;99.90
2935;DHT22;2462;51.456;7.248;2022-08-19T04:30:52;19.80;99.90
2935;DHT22;2462;51.456;7.248;2022-08-19T04:33:21;19.80;99.90
2935;DHT22;2462;51.456;7.248;2022-08-19T04:35:48;19.80;99.90
2935;DHT22;2462;51.456;7.248;2022-08-19T04:38:20;19.80;99.90
2935;DHT22;2462;51.456;7.248;2022-08-19T04:40:49;19.80;99.90
2935;DHT22;2462;51.456;7.248;2022-08-19T04:43:35;19.80;99.90
2935;DHT22;2462;51.456;7.248;2022-08-19T04:46:09;19.80;99.90
2935;DHT22;2462;51.456;7.248;2022-08-19T04:48:39;19.80;99.90
2935;DHT22;2462;51.456;7.248;2022-08-19T04:51:10;19.80;99.90
2935;DHT22;2462;51.456;7.248;2022-08-19T04:53:39;19.80;99.90
2935;DHT22;2462;51.456;7.248;2022-08-19T04:56:11;19.80;99.90
2935;DHT22;2462;51.456;7.248;2022-08-19T04:58:38;19.80;99.90
2935;DHT22;2462;51.456;7.248;2022-08-19T05:01:04;19.80;99.90
2935;DHT22;2462;51.456;7.248;2022-08-19T05:03:30;19.80;99.90
2935;DHT22;2462;51.456;7.248;2022-08-19T05:06:08;19.80;99.90
2935;DHT22;2462;51.456;7.248;2022-08-19T05:08:35;19.80;99.90
2935;DHT22;2462;51.456;7.248;2022-08-19T05:11:27;19.80;99.90
2935;DHT22;2462;51.456;7.248;2022-08-19T05:13:53;19.80;99.90
2935;DHT22;2462;51.456;7.248;2022-08-19T05:16:21;19.80;99.90
2935;DHT22;2462;51.456;7.248;2022-08-19T05:18:47;19.90;99.90
2935;DHT22;2462;51.456;7.248;2022-08-19T05:21:32;19.90;99.90
2935;DHT22;2462;51.456;7.248;2022-08-19T05:24:17;19.90;99.90
2935;DHT22;2462;51.456;7.248;2022-08-19T05:26:46;19.90;99.90
2935;DHT22;2462;51.456;7.248;2022-08-19T05:29:14;19.90;99.90
2935;DHT22;2462;51.456;7.248;2022-08-19T05:31:40;19.90;99.90
2935;DHT22;2462;51.456;7.248;2022-08-19T05:34:06;20.00;99.90
2935;DHT22;2462;51.456;7.248;2022-08-19T05:36:40;20.00;99.90
2935;DHT22;2462;51.456;7.248;2022-08-19T05:39:13;20.00;99.90
2935;DHT22;2462;51.456;7.248;2022-08-19T05:41:43;20.00;99.90
2935;DHT22;2462;51.456;7.248;2022-08-19T05:44:10;20.00;99.90
2935;DHT22;2462;51.456;7.248;2022-08-19T05:46:37;20.00;99.90
2935;DHT22;2462;51.456;7.248;2022-08-19T05:49:05;20.00;99.90
2935;DHT22;2462;51.456;7.248;2022-08-19T05:51:31;20.00;99.90
2935;DHT22;2462;51.456;7.248;2022-08-19T05:53:57;20.10;99.90
2935;DHT22;2462;51.456;7.248;2022-08-19T05:56:23;20.10;99.90
2935;DHT22;2462;51.456;7.248;2022-08-19T05:58:49;20.10;99.90
2935;DHT22;2462;51.456;7.248;2022-08-19T06:01:17;20.10;99.90
2935;DHT22;2462;51.456;7.248;2022-08-19T06:03:44;20.20;99.90
2935;DHT22;2462;51.456;7.248;2022-08-19T06:06:11;20.20;99.90
2935;DHT22;2462;51.456;7.248;2022-08-19T06:08:38;20.20;99.90
2935;DHT22;2462;51.456;7.248;2022-08-19T06:13:47;20.20;99.90
2935;DHT22;2462;51.456;7.248;2022-08-19T06:16:17;20.20;99.90
2935;DHT22;2462;51.456;7.248;2022-08-19T06:18:56;20.20;99.90
2935;DHT22;2462;51.456;7.248;2022-08-19T06:21:24;20.20;99.90
2935;DHT22;2462;51.456;7.248;2022-08-19T06:23:51;20.30;99.90
2935;DHT22;2462;51.456;7.248;2022-08-19T06:26:18;20.30;99.90
2935;DHT22;2462;51.456;7.248;2022-08-19T06:28:46;20.30;99.90
2935;DHT22;2462;51.456;7.248;2022-08-19T06:31:14;20.30;99.90
2935;DHT22;2462;51.456;7.248;2022-08-19T06:33:40;20.40;99.90
2935;DHT22;2462;51.456;7.248;2022-08-19T06:36:07;20.40;99.90
2935;DHT22;2462;51.456;7.248;2022-08-19T06:38:32;20.40;99.90
2935;DHT22;2462;51.456;7.248;2022-08-19T06:41:05;20.40;99.90
2935;DHT22;2462;51.456;7.248;2022-08-19T06:43:31;20.50;99.90
2935;DHT22;2462;51.456;7.248;2022-08-19T06:45:56;20.50;99.90
2935;DHT22;2462;51.456;7.248;2022-08-19T06:48:22;20.50;99.90
2935;DHT22;2462;51.456;7.248;2022-08-19T06:50:47;20.50;99.90
2935;DHT22;2462;51.456;7.248;2022-08-19T06:53:15;20.60;99.90
2935;DHT22;2462;51.456;7.248;2022-08-19T06:55:40;20.60;99.90
2935;DHT22;2462;51.456;7.248;2022-08-19T06:58:06;20.60;99.90
2935;DHT22;2462;51.456;7.248;2022-08-19T07:00:32;20.60;99.90
2935;DHT22;2462;51.456;7.248;2022-08-19T07:02:57;20.60;99.90
2935;DHT22;2462;51.456;7.248;2022-08-19T07:05:24;20.70;99.90
2935;DHT22;2462;51.456;7.248;2022-08-19T07:07:51;20.70;99.90
2935;DHT22;2462;51.456;7.248;2022-08-19T07:10:17;20.70;99.90
2935;DHT22;2462;51.456;7.248;2022-08-19T07:12:42;20.70;99.90
2935;DHT22;2462;51.456;7.248;2022-08-19T07:15:08;20.80;99.90
2935;DHT22;2462;51.456;7.248;2022-08-19T07:17:36;20.80;99.90
2935;DHT22;2462;51.456;7.248;2022-08-19T07:20:06;20.80;99.90
2935;DHT22;2462;51.456;7.248;2022-08-19T07:22:33;20.80;99.90
2935;DHT22;2462;51.456;7.248;2022-08-19T07:24:59;20.90;99.90
2935;DHT22;2462;51.456;7.248;2022-08-19T07:27:25;20.90;99.90
2935;DHT22;2462;51.456;7.248;2022-08-19T07:29:51;20.90;99.90
2935;DHT22;2462;51.456;7.248;2022-08-19T07:32:17;21.00;99.90
2935;DHT22;2462;51.456;7.248;2022-08-19T07:34:43;21.00;99.90
2935;DHT22;2462;51.456;7.248;2022-08-19T07:37:08;21.00;99.90
2935;DHT22;2462;51.456;7.248;2022-08-19T07:39:36;21.00;99.90
2935;DHT22;2462;51.456;7.248;2022-08-19T07:42:06;21.00;99.90
2935;DHT22;2462;51.456;7.248;2022-08-19T07:44:32;21.00;99.90
2935;DHT22;2462;51.456;7.248;2022-08-19T07:46:59;21.10;99.90
2935;DHT22;2462;51.456;7.248;2022-08-19T07:49:26;21.10;99.90
2935;DHT22;2462;51.456;7.248;2022-08-19T07:51:58;21.20;99.90
2935;DHT22;2462;51.456;7.248;2022-08-19T07:54:25;21.20;99.90
2935;DHT22;2462;51.456;7.248;2022-08-19T07:56:52;21.20;99.90
2935;DHT22;2462;51.456;7.248;2022-08-19T07:59:19;21.30;99.90
2935;DHT22;2462;51.456;7.248;2022-08-19T08:01:46;21.30;99.90
2935;DHT22;2462;51.456;7.248;2022-08-19T08:04:13;21.30;99.90
2935;DHT22;2462;51.456;7.248;2022-08-19T08:06:57;21.30;99.90
2935;DHT22;2462;51.456;7.248;2022-08-19T08:09:43;21.30;99.90
2935;DHT22;2462;51.456;7.248;2022-08-19T08:12:13;21.30;99.90
2935;DHT22;2462;51.456;7.248;2022-08-19T08:14:44;21.30;99.90
2935;DHT22;2462;51.456;7.248;2022-08-19T08:17:11;21.40;99.90
2935;DHT22;2462;51.456;7.248;2022-08-19T08:19:37;21.40;99.90
2935;DHT22;2462;51.456;7.248;2022-08-19T08:22:04;21.40;99.90
2935;DHT22;2462;51.456;7.248;2022-08-19T08:24:32;21.40;99.90
2935;DHT22;2462;51.456;7.248;2022-08-19T08:26:59;21.50;99.90
2935;DHT22;2462;51.456;7.248;2022-08-19T08:29:26;21.50;99.90
2935;DHT22;2462;51.456;7.248;2022-08-19T08:31:52;21.60;99.90
2935;DHT22;2462;51.456;7.248;2022-08-19T08:34:19;21.60;99.90
2935;DHT22;2462;51.456;7.248;2022-08-19T08:36:46;21.60;99.90
2935;DHT22;2462;51.456;7.248;2022-08-19T08:39:15;21.60;99.90
2935;DHT22;2462;51.456;7.248;2022-08-19T08:41:50;21.70;99.90
2935;DHT22;2462;51.456;7.248;2022-08-19T08:44:22;21.70;99.90
2935;DHT22;2462;51.456;7.248;2022-08-19T08:46:52;21.70;99.90
2935;DHT22;2462;51.456;7.248;2022-08-19T08:49:28;21.80;99.90
2935;DHT22;2462;51.456;7.248;2022-08-19T08:52:20;21.80;99.90
2935;DHT22;2462;51.456;7.248;2022-08-19T08:54:48;21.90;99.90
2935;DHT22;2462;51.456;7.248;2022-08-19T08:57:30;21.90;99.90
2935;DHT22;2462;51.456;7.248;2022-08-19T09:00:03;21.90;99.90
2935;DHT22;2462;51.456;7.248;2022-08-19T09:02:30;22.00;99.90
2935;DHT22;2462;51.456;7.248;2022-08-19T09:04:56;22.00;99.90
2935;DHT22;2462;51.456;7.248;2022-08-19T09:07:25;22.10;99.90
2935;DHT22;2462;51.456;7.248;2022-08-19T09:09:54;22.10;99.90
2935;DHT22;2462;51.456;7.248;2022-08-19T09:15:34;22.30;99.90
2935;DHT22;2462;51.456;7.248;2022-08-19T09:18:01;22.30;99.90
2935;DHT22;2462;51.456;7.248;2022-08-19T09:20:27;22.30;99.90
2935;DHT22;2462;51.456;7.248;2022-08-19T09:22:53;22.40;99.90
2935;DHT22;2462;51.456;7.248;2022-08-19T09:25:21;22.40;99.90
2935;DHT22;2462;51.456;7.248;2022-08-19T09:27:49;22.40;99.90
2935;DHT22;2462;51.456;7.248;2022-08-19T09:30:20;22.50;99.90
2935;DHT22;2462;51.456;7.248;2022-08-19T09:32:47;22.50;99.90
2935;DHT22;2462;51.456;7.248;2022-08-19T09:35:14;22.60;99.90
2935;DHT22;2462;51.456;7.248;2022-08-19T09:37:41;22.60;99.90
2935;DHT22;2462;51.456;7.248;2022-08-19T09:40:08;22.70;99.90
2935;DHT22;2462;51.456;7.248;2022-08-19T09:42:33;22.70;99.90
2935;DHT22;2462;51.456;7.248;2022-08-19T09:44:59;22.70;99.90
2935;DHT22;2462;51.456;7.248;2022-08-19T09:47:25;22.80;99.90
2935;DHT22;2462;51.456;7.248;2022-08-19T09:49:51;22.90;99.90
2935;DHT22;2462;51.456;7.248;2022-08-19T09:52:16;22.90;99.90
2935;DHT22;2462;51.456;7.248;2022-08-19T09:54:43;22.90;99.90
2935;DHT22;2462;51.456;7.248;2022-08-19T09:57:08;23.00;99.90
2935;DHT22;2462;51.456;7.248;2022-08-19T09:59:34;23.00;99.90
2935;DHT22;2462;51.456;7.248;2022-08-19T10:02:00;23.00;99.90
2935;DHT22;2462;51.456;7.248;2022-08-19T10:04:25;23.00;99.90
2935;DHT22;2462;51.456;7.248;2022-08-19T10:07:14;23.00;99.90
2935;DHT22;2462;51.456;7.248;2022-08-19T10:09:39;23.00;99.90
2935;DHT22;2462;51.456;7.248;2022-08-19T10:12:07;23.00;99.90
2935;DHT22;2462;51.456;7.248;2022-08-19T10:14:33;23.10;99.90
2935;DHT22;2462;51.456;7.248;2022-08-19T10:16:59;23.10;99.90
2935;DHT22;2462;51.456;7.248;2022-08-19T10:19:27;23.10;99.90
2935;DHT22;2462;51.456;7.248;2022-08-19T10:21:57;23.20;99.90
2935;DHT22;2462;51.456;7.248;2022-08-19T10:24:23;23.20;99.90
2935;DHT22;2462;51.456;7.248;2022-08-19T10:26:51;23.20;99.90
2935;DHT22;2462;51.456;7.248;2022-08-19T10:29:16;23.30;99.90
2935;DHT22;2462;51.456;7.248;2022-08-19T10:31:42;23.30;99.90
2935;DHT22;2462;51.456;7.248;2022-08-19T10:34:08;23.30;99.90
2935;DHT22;2462;51.456;7.248;2022-08-19T10:36:36;23.30;99.90
2935;DHT22;2462;51.456;7.248;2022-08-19T10:39:08;23.40;99.90
2935;DHT22;2462;51.456;7.248;2022-08-19T10:41:37;23.40;99.90
2935;DHT22;2462;51.456;7.248;2022-08-19T10:44:06;23.50;99.90
2935;DHT22;2462;51.456;7.248;2022-08-19T10:46:35;23.50;99.90
2935;DHT22;2462;51.456;7.248;2022-08-19T10:49:02;23.60;99.90
2935;DHT22;2462;51.456;7.248;2022-08-19T10:51:28;23.50;99.90
2935;DHT22;2462;51.456;7.248;2022-08-19T10:54:13;23.50;99.90
2935;DHT22;2462;51.456;7.248;2022-08-19T10:56:38;23.50;99.90
2935;DHT22;2462;51.456;7.248;2022-08-19T10:59:21;23.50;99.90
2935;DHT22;2462;51.456;7.248;2022-08-19T11:01:47;23.50;99.90
2935;DHT22;2462;51.456;7.248;2022-08-19T11:04:14;23.50;99.90
2935;DHT22;2462;51.456;7.248;2022-08-19T11:06:43;23.60;99.90
2935;DHT22;2462;51.456;7.248;2022-08-19T11:09:11;23.60;99.90
2935;DHT22;2462;51.456;7.248;2022-08-19T11:11:37;23.60;99.90
2935;DHT22;2462;51.456;7.248;2022-08-19T11:14:07;23.70;99.90
2935;DHT22;2462;51.456;7.248;2022-08-19T11:16:32;23.70;99.90
2935;DHT22;2462;51.456;7.248;2022-08-19T11:18:59;23.70;99.90
2935;DHT22;2462;51.456;7.248;2022-08-19T11:21:27;23.70;99.90
2935;DHT22;2462;51.456;7.248;2022-08-19T11:23:55;23.70;99.90
2935;DHT22;2462;51.456;7.248;2022-08-19T11:26:22;23.70;99.90
2935;DHT22;2462;51.456;7.248;2022-08-19T11:28:48;23.70;99.90
2935;DHT22;2462;51.456;7.248;2022-08-19T11:31:18;23.70;99.90
2935;DHT22;2462;51.456;7.248;2022-08-19T11:33:44;23.70;99.90
2935;DHT22;2462;51.456;7.248;2022-08-19T11:36:10;23.70;99.90
2935;DHT22;2462;51.456;7.248;2022-08-19T11:38:36;23.70;99.90
2935;DHT22;2462;51.456;7.248;2022-08-19T11:41:05;23.70;99.90
2935;DHT22;2462;51.456;7.248;2022-08-19T11:43:36;23.70;99.90
2935;DHT22;2462;51.456;7.248;2022-08-19T11:46:10;23.70;99.90
2935;DHT22;2462;51.456;7.248;2022-08-19T11:48:37;23.80;99.90
2935;DHT22;2462;51.456;7.248;2022-08-19T11:51:07;23.80;99.90
2935;DHT22;2462;51.456;7.248;2022-08-19T11:53:34;23.80;99.90
2935;DHT22;2462;51.456;7.248;2022-08-19T11:56:01;23.90;99.90
2935;DHT22;2462;51.456;7.248;2022-08-19T11:58:27;24.00;99.90
2935;DHT22;2462;51.456;7.248;2022-08-19T12:00:54;24.10;99.90
2935;DHT22;2462;51.456;7.248;2022-08-19T12:03:20;24.20;99.90
2935;DHT22;2462;51.456;7.248;2022-08-19T12:05:46;24.20;99.90
2935;DHT22;2462;51.456;7.248;2022-08-19T12:08:12;24.30;99.90
2935;DHT22;2462;51.456;7.248;2022-08-19T12:10:39;24.30;99.90
2935;DHT22;2462;51.456;7.248;2022-08-19T12:13:05;24.40;99.90
2935;DHT22;2462;51.456;7.248;2022-08-19T12:15:38;24.40;99.90
2935;DHT22;2462;51.456;7.248;2022-08-19T12:18:06;24.40;99.90
2935;DHT22;2462;51.456;7.248;2022-08-19T12:20:35;24.40;99.90
2935;DHT22;2462;51.456;7.248;2022-08-19T12:23:01;24.40;99.90
2935;DHT22;2462;51.456;7.248;2022-08-19T12:25:26;24.40;99.90
2935;DHT22;2462;51.456;7.248;2022-08-19T12:27:52;24.40;99.90
2935;DHT22;2462;51.456;7.248;2022-08-19T12:30:17;24.50;99.90
2935;DHT22;2462;51.456;7.248;2022-08-19T12:32:43;24.50;99.90
2935;DHT22;2462;51.456;7.248;2022-08-19T12:35:09;24.50;99.90
2935;DHT22;2462;51.456;7.248;2022-08-19T12:37:37;24.60;99.90
2935;DHT22;2462;51.456;7.248;2022-08-19T12:40:03;24.60;99.90
2935;DHT22;2462;51.456;7.248;2022-08-19T12:42:29;24.60;99.90
2935;DHT22;2462;51.456;7.248;2022-08-19T12:44:55;24.70;99.90
2935;DHT22;2462;51.456;7.248;2022-08-19T12:47:21;24.70;99.90
2935;DHT22;2462;51.456;7.248;2022-08-19T12:49:47;24.70;99.90
2935;DHT22;2462;51.456;7.248;2022-08-19T12:52:13;24.80;99.90
2935;DHT22;2462;51.456;7.248;2022-08-19T12:54:42;24.80;99.90
2935;DHT22;2462;51.456;7.248;2022-08-19T12:57:09;24.80;99.90
2935;DHT22;2462;51.456;7.248;2022-08-19T12:59:36;24.80;99.90
2935;DHT22;2462;51.456;7.248;2022-08-19T13:02:04;24.80;99.90
2935;DHT22;2462;51.456;7.248;2022-08-19T13:04:31;24.80;99.90
2935;DHT22;2462;51.456;7.248;2022-08-19T13:06:58;24.80;99.90
2935;DHT22;2462;51.456;7.248;2022-08-19T13:09:24;24.90;99.90
2935;DHT22;2462;51.456;7.248;2022-08-19T13:11:49;24.90;99.90
2935;DHT22;2462;51.456;7.248;2022-08-19T13:14:15;24.90;99.90
2935;DHT22;2462;51.456;7.248;2022-08-19T13:16:40;25.00;99.90
2935;DHT22;2462;51.456;7.248;2022-08-19T13:19:06;25.00;99.90
2935;DHT22;2462;51.456;7.248;2022-08-19T13:21:32;25.10;99.90
2935;DHT22;2462;51.456;7.248;2022-08-19T13:23:58;25.10;99.90
2935;DHT22;2462;51.456;7.248;2022-08-19T13:26:24;25.10;99.90
2935;DHT22;2462;51.456;7.248;2022-08-19T13:28:50;25.10;99.90
2935;DHT22;2462;51.456;7.248;2022-08-19T13:31:40;25.20;99.90
2935;DHT22;2462;51.456;7.248;2022-08-19T13:34:34;25.20;99.90
2935;DHT22;2462;51.456;7.248;2022-08-19T13:37:01;25.20;99.90
2935;DHT22;2462;51.456;7.248;2022-08-19T13:39:29;25.30;99.90
2935;DHT22;2462;51.456;7.248;2022-08-19T13:41:54;25.30;99.90
2935;DHT22;2462;51.456;7.248;2022-08-19T13:44:20;25.30;99.90
2935;DHT22;2462;51.456;7.248;2022-08-19T13:46:47;25.40;99.90
2935;DHT22;2462;51.456;7.248;2022-08-19T13:49:14;25.40;99.90
2935;DHT22;2462;51.456;7.248;2022-08-19T13:51:41;25.40;99.90
2935;DHT22;2462;51.456;7.248;2022-08-19T13:54:08;25.50;99.90
2935;DHT22;2462;51.456;7.248;2022-08-19T13:56:35;25.50;99.90
2935;DHT22;2462;51.456;7.248;2022-08-19T13:59:01;25.60;99.90
2935;DHT22;2462;51.456;7.248;2022-08-19T14:01:26;25.60;99.90
2935;DHT22;2462;51.456;7.248;2022-08-19T14:03:52;25.60;99.90
2935;DHT22;2462;51.456;7.248;2022-08-19T14:06:18;25.70;99.90
2935;DHT22;2462;51.456;7.248;2022-08-19T14:08:44;25.70;99.90
2935;DHT22;2462;51.456;7.248;2022-08-19T14:11:10;25.70;99.90
2935;DHT22;2462;51.456;7.248;2022-08-19T14:13:36;25.70;99.90
2935;DHT22;2462;51.456;7.248;2022-08-19T14:16:07;25.80;99.90
2935;DHT22;2462;51.456;7.248;2022-08-19T14:18:33;25.80;99.90
2935;DHT22;2462;51.456;7.248;2022-08-19T14:20:59;25.90;99.90
2935;DHT22;2462;51.456;7.248;2022-08-19T14:23:25;25.90;99.90
2935;DHT22;2462;51.456;7.248;2022-08-19T14:25:50;25.90;99.90
2935;DHT22;2462;51.456;7.248;2022-08-19T14:28:16;26.00;99.90
2935;DHT22;2462;51.456;7.248;2022-08-19T14:30:42;26.00;99.90
2935;DHT22;2462;51.456;7.248;2022-08-19T14:33:09;26.00;99.90
2935;DHT22;2462;51.456;7.248;2022-08-19T14:35:36;26.10;99.90
2935;DHT22;2462;51.456;7.248;2022-08-19T14:38:04;26.10;99.90
2935;DHT22;2462;51.456;7.248;2022-08-19T14:40:30;26.20;99.90
2935;DHT22;2462;51.456;7.248;2022-08-19T14:42:58;26.20;99.90
2935;DHT22;2462;51.456;7.248;2022-08-19T14:45:28;26.20;99.90
2935;DHT22;2462;51.456;7.248;2022-08-19T14:47:54;26.20;99.90
2935;DHT22;2462;51.456;7.248;2022-08-19T14:50:20;26.20;99.90
2935;DHT22;2462;51.456;7.248;2022-08-19T14:52:46;26.10;99.90
2935;DHT22;2462;51.456;7.248;2022-08-19T14:55:14;26.00;99.90
2935;DHT22;2462;51.456;7.248;2022-08-19T14:57:41;26.00;99.90
2935;DHT22;2462;51.456;7.248;2022-08-19T15:00:08;26.00;99.90
2935;DHT22;2462;51.456;7.248;2022-08-19T15:02:38;26.00;99.90
2935;DHT22;2462;51.456;7.248;2022-08-19T15:05:04;25.90;99.90
2935;DHT22;2462;51.456;7.248;2022-08-19T15:07:29;25.90;99.90
2935;DHT22;2462;51.456;7.248;2022-08-19T15:09:55;25.80;99.90
2935;DHT22;2462;51.456;7.248;2022-08-19T15:12:21;25.80;99.90
2935;DHT22;2462;51.456;7.248;2022-08-19T15:14:47;25.80;99.90
2935;DHT22;2462;51.456;7.248;2022-08-19T15:17:16;25.70;99.90
2935;DHT22;2462;51.456;7.248;2022-08-19T15:19:42;25.70;99.90
2935;DHT22;2462;51.456;7.248;2022-08-19T15:22:08;25.60;99.90
2935;DHT22;2462;51.456;7.248;2022-08-19T15:24:33;25.60;99.90
2935;DHT22;2462;51.456;7.248;2022-08-19T15:27:01;25.60;99.90
2935;DHT22;2462;51.456;7.248;2022-08-19T15:29:26;25.60;99.90
2935;DHT22;2462;51.456;7.248;2022-08-19T15:31:52;25.60;99.90
2935;DHT22;2462;51.456;7.248;2022-08-19T15:34:21;25.60;99.90
2935;DHT22;2462;51.456;7.248;2022-08-19T15:36:46;25.60;99.90
2935;DHT22;2462;51.456;7.248;2022-08-19T15:39:12;25.50;99.90
2935;DHT22;2462;51.456;7.248;2022-08-19T15:41:37;25.50;99.90
2935;DHT22;2462;51.456;7.248;2022-08-19T15:44:08;25.50;99.90
2935;DHT22;2462;51.456;7.248;2022-08-19T15:46:37;25.40;99.90
2935;DHT22;2462;51.456;7.248;2022-08-19T15:49:04;25.40;99.90
2935;DHT22;2462;51.456;7.248;2022-08-19T15:51:32;25.40;99.90
2935;DHT22;2462;51.456;7.248;2022-08-19T15:54:01;25.40;99.90
2935;DHT22;2462;51.456;7.248;2022-08-19T15:56:27;25.40;99.90
2935;DHT22;2462;51.456;7.248;2022-08-19T15:59:12;25.40;99.90
2935;DHT22;2462;51.456;7.248;2022-08-19T16:01:56;25.40;99.90
2935;DHT22;2462;51.456;7.248;2022-08-19T16:04:52;25.40;99.90
2935;DHT22;2462;51.456;7.248;2022-08-19T16:07:36;25.40;99.90
2935;DHT22;2462;51.456;7.248;2022-08-19T16:10:02;25.40;99.90
2935;DHT22;2462;51.456;7.248;2022-08-19T16:12:28;25.30;99.90
2935;DHT22;2462;51.456;7.248;2022-08-19T16:14:55;25.40;99.90